Time;durP1;ratioP1;P1;durP2;ratioP2;P2;SDS_P1;SDS_P2;PMS_P1;PMS_P2;Temp;Humidity;BMP_temperature;BMP_pressure;BME280_temperature;BME280_humidity;BME280_pressure;Samples;Min_cycle;Max_cycle;Signal;HPM_P1;HPM_P2
2021/03/05 00:00:24;;;;;;;;;;;;;;;7.00;42.38;101890.28;6055503;23;19925;-75
2021/03/05 00:02:52;;;;;;;;;;;;;;;6.97;42.35;101891.13;6058285;23;20005;-75
2021/03/05 00:05:31;;;;;;;;;;;;;;;6.93;42.48;101892.88;6049871;23;19925;-76
2021/03/05 00:07:58;;;;;;;;;;;;;;;6.90;42.30;101902.50;6053080;23;20281;-75
2021/03/05 00:10:26;;;;;;;;;;;;;;;6.78;42.17;101898.91;6049827;23;20352;-75
2021/03/05 00:12:52;;;;;;;;;;;;;;;6.83;42.30;101906.84;6059842;23;20936;-75
2021/03/05 00:15:21;;;;;;;;;;;;;;;6.79;42.12;101905.94;6053431;23;20003;-75
2021/03/05 00:17:49;;;;;;;;;;;;;;;6.72;42.35;101906.75;6067350;23;19928;-75
2021/03/05 00:20:18;;;;;;;;;;;;;;;6.69;42.43;101911.13;6061265;23;19932;-75
2021/03/05 00:22:45;;;;;;;;;;;;;;;6.67;42.47;101903.19;6064417;23;20008;-75
2021/03/05 00:25:12;;;;;;;;;;;;;;;6.65;42.30;101907.59;6059865;23;20371;-75
2021/03/05 00:27:39;;;;;;;;;;;;;;;6.63;42.20;101906.69;6067576;23;20000;-75
2021/03/05 00:30:06;;;;;;;;;;;;;;;6.60;42.20;101906.66;6064336;23;20275;-75
2021/03/05 00:32:39;;;;;;;;;;;;;;;6.56;42.16;101915.41;6091407;23;20273;-75
2021/03/05 00:35:09;;;;;;;;;;;;;;;6.52;42.35;101917.13;6055539;23;19964;-75
2021/03/05 00:37:38;;;;;;;;;;;;;;;6.50;42.30;101911.00;6063682;23;20367;-76
2021/03/05 00:40:06;;;;;;;;;;;;;;;6.47;42.23;101909.22;6064845;23;19960;-75
2021/03/05 00:42:40;;;;;;;;;;;;;;;6.43;42.13;101912.66;6067394;23;19925;-75
2021/03/05 00:45:08;;;;;;;;;;;;;;;6.37;42.29;101906.47;6082905;23;19929;-76
2021/03/05 00:47:38;;;;;;;;;;;;;;;6.37;42.20;101904.75;6055313;23;19955;-75
2021/03/05 00:50:06;;;;;;;;;;;;;;;6.32;42.40;101896.81;6049655;23;19932;-75
2021/03/05 00:52:40;;;;;;;;;;;;;;;6.27;42.48;101905.53;6048389;23;20016;-75
2021/03/05 00:55:08;;;;;;;;;;;;;;;6.26;42.24;101903.75;6052706;23;20343;-75
2021/03/05 00:57:40;;;;;;;;;;;;;;;6.20;42.25;101901.97;6052492;23;19924;-75
2021/03/05 01:00:09;;;;;;;;;;;;;;;6.21;41.95;101895.84;6044084;23;19931;-75
2021/03/05 01:02:37;;;;;;;;;;;;;;;6.17;42.28;101895.78;6053978;23;21017;-75
2021/03/05 01:05:05;;;;;;;;;;;;;;;6.15;41.98;101895.78;6042290;23;19948;-75
2021/03/05 01:07:39;;;;;;;;;;;;;;;6.10;42.23;101890.47;6054561;23;19924;-76
2021/03/05 01:10:09;;;;;;;;;;;;;;;6.09;42.15;101891.38;6039844;23;19925;-75
2021/03/05 01:12:39;;;;;;;;;;;;;;;6.06;42.37;101891.31;6059289;23;19932;-75
2021/03/05 01:15:07;;;;;;;;;;;;;;;6.03;42.17;101891.28;6053067;23;19983;-75
2021/03/05 01:17:39;;;;;;;;;;;;;;;5.99;42.02;101884.25;6054717;23;20019;-75
2021/03/05 01:20:08;;;;;;;;;;;;;;;5.94;41.96;101891.19;6048829;23;19925;-75
2021/03/05 01:22:38;;;;;;;;;;;;;;;5.90;42.36;101885.00;6052617;23;19925;-75
2021/03/05 01:25:07;;;;;;;;;;;;;;;5.86;42.08;101888.47;6052934;23;19960;-75
2021/03/05 01:27:37;;;;;;;;;;;;;;;5.85;41.73;101884.06;6059530;23;20336;-76
2021/03/05 01:30:05;;;;;;;;;;;;;;;5.82;42.05;101882.28;6065841;23;20178;-75
2021/03/05 01:32:57;;;;;;;;;;;;;;;5.79;41.85;101884.00;6057653;23;19972;-75
2021/03/05 01:35:25;;;;;;;;;;;;;;;5.75;42.09;101890.97;6060572;23;20476;-75
2021/03/05 01:37:51;;;;;;;;;;;;;;;5.75;42.06;101897.97;6067665;23;19925;-75
2021/03/05 01:40:21;;;;;;;;;;;;;;;5.73;42.09;101897.09;6065789;23;19952;-75
2021/03/05 01:42:48;;;;;;;;;;;;;;;5.71;42.18;101893.53;6064110;23;19947;-75
2021/03/05 01:45:17;;;;;;;;;;;;;;;5.69;41.71;101897.91;6064903;23;19925;-74
2021/03/05 01:47:44;;;;;;;;;;;;;;;5.64;41.97;101903.09;6062084;23;19925;-74
2021/03/05 01:50:12;;;;;;;;;;;;;;;5.65;41.96;101910.97;6057255;23;19953;-75
2021/03/05 01:52:43;;;;;;;;;;;;;;;5.64;41.93;101906.59;6064327;23;19929;-74
2021/03/05 01:55:10;;;;;;;;;;;;;;;5.65;41.99;101908.34;6062818;23;20376;-75
2021/03/05 01:57:41;;;;;;;;;;;;;;;5.64;41.97;101905.72;6065857;23;20750;-75
2021/03/05 02:00:10;;;;;;;;;;;;;;;5.64;41.77;101909.22;6053383;23;19925;-74
2021/03/05 02:02:37;;;;;;;;;;;;;;;5.63;41.79;101910.09;6047588;23;19932;-75
2021/03/05 02:05:05;;;;;;;;;;;;;;;5.61;41.75;101903.94;6050844;23;20000;-74
2021/03/05 02:07:39;;;;;;;;;;;;;;;5.61;41.87;101908.31;6054704;23;20354;-75
2021/03/05 02:10:06;;;;;;;;;;;;;;;5.60;41.94;101906.56;6053766;23;19999;-74
2021/03/05 02:12:39;;;;;;;;;;;;;;;5.57;41.46;101904.78;6054484;23;19931;-74
2021/03/05 02:15:07;;;;;;;;;;;;;;;5.57;41.78;101917.00;6049845;23;19975;-75
2021/03/05 02:17:45;;;;;;;;;;;;;;;5.53;41.77;101915.19;6051792;23;19978;-75
2021/03/05 02:20:17;;;;;;;;;;;;;;;5.52;41.77;101910.84;6054116;23;20043;-75
2021/03/05 02:22:59;;;;;;;;;;;;;;;5.50;41.63;101908.16;6058477;23;20336;-74
2021/03/05 02:25:57;;;;;;;;;;;;;;;5.46;41.79;101902.03;6051516;23;19925;-74
2021/03/05 02:28:54;;;;;;;;;;;;;;;5.44;41.41;101914.25;6058989;23;19924;-75
2021/03/05 02:31:31;;;;;;;;;;;;;;;5.43;41.51;101916.84;5985791;23;19945;-74
2021/03/05 02:34:01;;;;;;;;;;;;;;;5.41;41.71;101915.94;6052057;23;20011;-74
2021/03/05 02:36:37;;;;;;;;;;;;;;;5.35;41.61;101919.38;6061167;23;19972;-74
2021/03/05 02:39:06;;;;;;;;;;;;;;;5.35;41.78;101918.50;6070824;23;19931;-74
2021/03/05 02:41:35;;;;;;;;;;;;;;;5.30;41.56;101924.53;6064910;23;19976;-75
2021/03/05 02:44:03;;;;;;;;;;;;;;;5.29;41.55;101921.91;6064621;23;19925;-75
2021/03/05 02:46:34;;;;;;;;;;;;;;;5.27;41.66;101923.66;6056571;23;19929;-75
2021/03/05 02:49:03;;;;;;;;;;;;;;;5.26;41.76;101927.13;6070957;23;19928;-75
2021/03/05 02:51:32;;;;;;;;;;;;;;;5.23;41.71;101929.72;6066145;23;19939;-75
2021/03/05 02:54:01;;;;;;;;;;;;;;;5.21;41.77;101941.91;6068087;23;19924;-75
2021/03/05 02:56:30;;;;;;;;;;;;;;;5.18;41.89;101937.50;6063188;23;19928;-75
2021/03/05 02:58:57;;;;;;;;;;;;;;;5.17;41.61;101940.13;6060270;23;19925;-75
2021/03/05 03:01:25;;;;;;;;;;;;;;;5.12;41.83;101940.94;6062559;23;19935;-74
2021/03/05 03:03:54;;;;;;;;;;;;;;;5.13;41.77;101941.81;6066055;23;20396;-74
2021/03/05 03:06:22;;;;;;;;;;;;;;;5.12;41.49;101954.06;6053231;23;20403;-75
2021/03/05 03:08:50;;;;;;;;;;;;;;;5.11;42.02;101959.28;6057338;23;19972;-75
2021/03/05 03:11:18;;;;;;;;;;;;;;;5.13;41.47;101958.44;6047178;23;19943;-75
2021/03/05 03:13:45;;;;;;;;;;;;;;;5.14;41.40;101961.94;6052267;23;20344;-75
2021/03/05 03:16:12;;;;;;;;;;;;;;;5.16;41.20;101965.44;6053607;23;19925;-75
2021/03/05 03:18:40;;;;;;;;;;;;;;;5.17;41.43;101969.84;6078229;23;20023;-75
2021/03/05 03:21:08;;;;;;;;;;;;;;;5.19;41.14;101969.88;6055763;23;19949;-75
2021/03/05 03:23:35;;;;;;;;;;;;;;;5.20;41.51;101969.91;6057040;23;19925;-74
2021/03/05 03:26:02;;;;;;;;;;;;;;;5.21;41.32;101976.91;6052180;23;19925;-74
2021/03/05 03:28:29;;;;;;;;;;;;;;;5.20;41.29;101975.16;6047791;23;19984;-74
2021/03/05 03:30:56;;;;;;;;;;;;;;;5.20;41.58;101969.00;6052653;23;19925;-75
2021/03/05 03:33:23;;;;;;;;;;;;;;;5.19;41.41;101969.88;6061635;23;19924;-74
2021/03/05 03:35:51;;;;;;;;;;;;;;;5.18;41.51;101971.63;6051799;23;19929;-75
2021/03/05 03:38:20;;;;;;;;;;;;;;;5.18;41.52;101965.50;6054592;23;19931;-75
2021/03/05 03:40:47;;;;;;;;;;;;;;;5.11;41.28;101967.16;6047847;23;20318;-75
2021/03/05 03:43:14;;;;;;;;;;;;;;;5.13;41.40;101971.56;6053522;23;19928;-75
2021/03/05 03:45:41;;;;;;;;;;;;;;;5.12;41.11;101975.03;6054503;23;20022;-74
2021/03/05 03:48:09;;;;;;;;;;;;;;;5.12;41.51;101977.66;6057620;23;20452;-75
2021/03/05 03:50:39;;;;;;;;;;;;;;;5.10;41.51;101973.25;6054154;23;20851;-74
2021/03/05 03:53:09;;;;;;;;;;;;;;;5.09;41.25;101974.97;6058471;23;19920;-75
2021/03/05 03:55:37;;;;;;;;;;;;;;;5.06;41.52;101984.56;6051618;23;19925;-74
2021/03/05 03:58:04;;;;;;;;;;;;;;;5.05;41.84;101988.91;6059618;23;19929;-74
2021/03/05 04:00:31;;;;;;;;;;;;;;;5.03;41.24;101982.78;6066385;23;20003;-75
2021/03/05 04:02:58;;;;;;;;;;;;;;;5.02;41.53;101986.25;6071089;23;19952;-74
2021/03/05 04:05:26;;;;;;;;;;;;;;;4.99;41.31;101983.59;6064351;23;20027;-75
2021/03/05 04:07:54;;;;;;;;;;;;;;;4.97;41.72;101993.16;6067652;23;20577;-75
2021/03/05 04:10:21;;;;;;;;;;;;;;;4.94;41.39;101990.50;6055893;23;19931;-74
2021/03/05 04:12:51;;;;;;;;;;;;;;;4.91;41.59;101987.81;6065066;23;19929;-75
2021/03/05 04:15:18;;;;;;;;;;;;;;;4.89;41.40;101993.03;6068212;23;19925;-74
2021/03/05 04:17:45;;;;;;;;;;;;;;;4.88;41.81;102000.88;6059684;23;19925;-75
2021/03/05 04:20:13;;;;;;;;;;;;;;;4.85;41.79;102008.72;6051588;23;20650;-74
2021/03/05 04:22:42;;;;;;;;;;;;;;;4.83;41.43;102006.03;6058593;23;19936;-75
2021/03/05 04:25:09;;;;;;;;;;;;;;;4.81;41.39;102000.78;6049004;23;20382;-74
2021/03/05 04:27:37;;;;;;;;;;;;;;;4.82;41.68;102002.53;6057979;23;19925;-75
2021/03/05 04:30:06;;;;;;;;;;;;;;;4.85;41.76;102006.09;6045948;23;20273;-75
2021/03/05 04:32:58;;;;;;;;;;;;;;;4.85;41.89;102006.97;6060330;23;19924;-75
2021/03/05 04:35:25;;;;;;;;;;;;;;;4.88;41.14;102006.13;6052211;23;19929;-74
2021/03/05 04:37:52;;;;;;;;;;;;;;;4.90;41.46;102013.16;6057279;23;19956;-75
2021/03/05 04:40:19;;;;;;;;;;;;;;;4.91;41.53;102014.03;6043484;23;19924;-73
2021/03/05 04:42:45;;;;;;;;;;;;;;;4.94;41.25;102008.84;6058847;23;19933;-74
2021/03/05 04:45:13;;;;;;;;;;;;;;;4.95;40.98;102006.25;6054326;23;19925;-75
2021/03/05 04:47:40;;;;;;;;;;;;;;;4.95;41.25;102005.34;6056673;23;19928;-76
2021/03/05 04:50:07;;;;;;;;;;;;;;;4.96;41.02;102002.78;6049251;23;20276;-76
2021/03/05 04:52:37;;;;;;;;;;;;;;;4.98;41.43;102010.66;6055319;23;20351;-75
2021/03/05 04:55:05;;;;;;;;;;;;;;;4.97;41.35;101999.28;6055899;23;20872;-75
2021/03/05 04:57:38;;;;;;;;;;;;;;;4.96;41.41;101994.91;6068331;23;20260;-75
2021/03/05 05:00:06;;;;;;;;;;;;;;;4.95;40.94;102001.00;6064543;23;19928;-76
2021/03/05 05:02:40;;;;;;;;;;;;;;;4.96;41.45;101996.63;6062785;23;19925;-76
2021/03/05 05:05:07;;;;;;;;;;;;;;;4.94;40.96;101999.25;6053121;23;20216;-75
2021/03/05 05:07:40;;;;;;;;;;;;;;;4.89;41.47;102006.16;6054597;23;20396;-75
2021/03/05 05:10:07;;;;;;;;;;;;;;;4.90;41.08;102005.28;6046585;23;19925;-75
2021/03/05 05:12:38;;;;;;;;;;;;;;;4.90;41.59;102013.16;6053159;23;19948;-77
2021/03/05 05:15:06;;;;;;;;;;;;;;;4.89;41.36;102013.16;6052368;23;20501;-74
2021/03/05 05:17:40;;;;;;;;;;;;;;;4.89;41.64;102015.75;6054658;23;19925;-75
2021/03/05 05:20:08;;;;;;;;;;;;;;;4.88;41.49;102016.63;6053195;23;19992;-75
2021/03/05 05:22:38;;;;;;;;;;;;;;;4.86;41.42;102010.44;6050340;23;20368;-76
2021/03/05 05:25:07;;;;;;;;;;;;;;;4.84;41.69;102017.44;6088286;23;20002;-74
2021/03/05 05:27:37;;;;;;;;;;;;;;;4.82;41.68;102014.78;6066004;23;19944;-74
2021/03/05 05:30:05;;;;;;;;;;;;;;;4.80;41.69;102012.13;6063146;23;20362;-74
2021/03/05 05:32:57;;;;;;;;;;;;;;;4.78;41.86;102008.59;6063697;23;19925;-74
2021/03/05 05:35:25;;;;;;;;;;;;;;;4.76;41.48;102007.69;6060335;23;19996;-74
2021/03/05 05:37:52;;;;;;;;;;;;;;;4.76;41.71;102007.69;6064312;23;19959;-74
2021/03/05 05:40:19;;;;;;;;;;;;;;;4.74;41.35;102014.66;6063564;23;19928;-74
2021/03/05 05:42:47;;;;;;;;;;;;;;;4.75;41.88;102016.38;6067151;23;19928;-74
2021/03/05 05:45:14;;;;;;;;;;;;;;;4.75;41.42;102005.91;6064811;23;19921;-73
2021/03/05 05:47:42;;;;;;;;;;;;;;;4.77;41.92;102014.69;6067613;23;20064;-74
2021/03/05 06:15:30;;;;;;;;;;;;;;;5.09;41.03;102043.19;6121337;23;20330;-77
2021/03/05 06:17:57;;;;;;;;;;;;;;;5.11;40.62;102040.59;6107857;23;20148;-75
2021/03/05 06:20:25;;;;;;;;;;;;;;;5.10;40.65;102037.06;6079241;23;19925;-75
2021/03/05 06:23:09;;;;;;;;;;;;;;;5.11;41.04;102044.09;6082868;23;20282;-76
2021/03/05 06:25:36;;;;;;;;;;;;;;;5.12;40.78;102045.88;6086609;23;20234;-74
2021/03/05 06:28:16;;;;;;;;;;;;;;;5.13;40.68;102046.75;6089654;23;19971;-74
2021/03/05 06:30:46;;;;;;;;;;;;;;;5.12;40.59;102045.88;6118638;23;19936;-74
2021/03/05 06:33:23;;;;;;;;;;;;;;;5.17;40.68;102051.16;6114266;23;19931;-74
2021/03/05 06:39:56;;;;;;;;;;;;;;;5.28;40.15;102065.34;5926580;23;19933;-78
2021/03/05 06:42:24;;;;;;;;;;;;;;;5.36;40.54;102070.72;6115796;23;19920;-75
2021/03/05 06:44:51;;;;;;;;;;;;;;;5.38;40.17;102078.63;6118669;23;19932;-76
2021/03/05 06:47:19;;;;;;;;;;;;;;;5.48;40.26;102073.53;6115214;23;19924;-77
2021/03/05 06:49:49;;;;;;;;;;;;;;;5.67;39.87;102075.53;6122099;23;20159;-76
2021/03/05 06:52:17;;;;;;;;;;;;;;;5.80;39.57;102087.97;6094658;23;19925;-76
2021/03/05 06:54:49;;;;;;;;;;;;;;;5.96;38.93;102084.72;6121280;23;20250;-79
2021/03/05 06:57:26;;;;;;;;;;;;;;;6.09;38.99;102090.13;6120192;23;20229;-76
2021/03/05 06:59:55;;;;;;;;;;;;;;;6.19;38.67;102093.78;6114358;23;20258;-78
2021/03/05 07:02:30;;;;;;;;;;;;;;;6.31;38.47;102107.94;6111984;23;19928;-79
2021/03/05 07:04:58;;;;;;;;;;;;;;;6.35;38.69;102098.34;6119225;23;19947;-76
2021/03/05 07:07:25;;;;;;;;;;;;;;;6.45;38.65;102099.34;6120223;23;20094;-75
2021/03/05 07:09:53;;;;;;;;;;;;;;;6.51;38.43;102093.25;6118060;23;20019;-76
2021/03/05 07:12:22;;;;;;;;;;;;;;;6.53;38.57;102104.69;6124457;23;20378;-76
2021/03/05 07:14:50;;;;;;;;;;;;;;;6.58;38.36;102106.50;6118125;23;19994;-78
2021/03/05 07:17:18;;;;;;;;;;;;;;;6.61;38.62;102108.28;6091761;23;19924;-76
2021/03/05 07:19:46;;;;;;;;;;;;;;;6.62;38.69;102108.28;6123819;23;19935;-77
2021/03/05 07:22:13;;;;;;;;;;;;;;;6.64;38.78;102114.47;6123172;23;19984;-76
2021/03/05 07:24:42;;;;;;;;;;;;;;;6.67;38.93;102112.72;6116981;23;19948;-76
2021/03/05 07:27:09;;;;;;;;;;;;;;;6.75;38.75;102125.09;6084899;23;19948;-76
2021/03/05 07:29:38;;;;;;;;;;;;;;;6.74;38.85;102131.22;6157103;23;20126;-76
2021/03/05 07:32:06;;;;;;;;;;;;;;;6.77;39.07;102130.34;6154971;23;19951;-77
2021/03/05 07:34:36;;;;;;;;;;;;;;;6.80;39.15;102133.91;6134633;23;19924;-76
2021/03/05 07:37:05;;;;;;;;;;;;;;;6.83;38.95;102127.81;6158390;23;20376;-76
2021/03/05 07:39:33;;;;;;;;;;;;;;;7.00;38.90;102140.22;6162193;23;20024;-76
2021/03/05 07:42:03;;;;;;;;;;;;;;;7.22;38.56;102130.78;6157846;23;20345;-76
2021/03/05 07:44:38;;;;;;;;;;;;;;;7.53;37.73;102137.19;6151811;23;19956;-76
2021/03/05 07:47:08;;;;;;;;;;;;;;;7.77;37.40;102131.22;6130436;23;20012;-77
2021/03/05 07:49:35;;;;;;;;;;;;;;;7.92;36.98;102127.78;6157492;23;19931;-76
2021/03/05 07:52:03;;;;;;;;;;;;;;;8.04;36.94;102140.13;6160799;23;19931;-76
2021/03/05 07:54:50;;;;;;;;;;;;;;;8.20;37.23;102143.72;6163040;23;19924;-76
2021/03/05 07:57:44;;;;;;;;;;;;;;;8.38;36.31;102139.41;6159171;23;19955;-76
2021/03/05 08:00:12;;;;;;;;;;;;;;;8.56;36.39;102142.16;6157295;23;19947;-76
2021/03/05 08:02:52;;;;;;;;;;;;;;;8.60;36.45;102146.56;6134665;23;19924;-76
2021/03/05 08:05:33;;;;;;;;;;;;;;;8.64;36.48;102137.78;6158895;23;19920;-76
2021/03/05 08:08:10;;;;;;;;;;;;;;;8.77;36.29;102141.34;6134366;23;19925;-76
2021/03/05 08:10:38;;;;;;;;;;;;;;;8.94;36.70;102145.75;6137071;23;19920;-76
2021/03/05 08:13:20;;;;;;;;;;;;;;;9.14;35.99;102141.41;6129329;23;19924;-76
2021/03/05 08:15:48;;;;;;;;;;;;;;;9.34;35.89;102139.63;6131645;23;19920;-76
2021/03/05 08:18:21;;;;;;;;;;;;;;;9.47;35.83;102142.28;6133441;23;19924;-77
2021/03/05 08:20:51;;;;;;;;;;;;;;;9.61;36.00;102144.91;6162073;23;19921;-77
2021/03/05 08:23:19;;;;;;;;;;;;;;;9.79;35.32;102151.91;6158735;23;19971;-77
2021/03/05 08:25:54;;;;;;;;;;;;;;;10.06;35.24;102157.16;6131582;23;19988;-77
2021/03/05 08:28:38;;;;;;;;;;;;;;;10.33;34.88;102144.72;6158514;23;19940;-77
2021/03/05 08:31:24;;;;;;;;;;;;;;;10.62;34.13;102142.88;6158290;23;20387;-76
2021/03/05 08:33:52;;;;;;;;;;;;;;;10.95;33.62;102163.84;6133994;23;20007;-77
2021/03/05 08:36:46;;;;;;;;;;;;;;;11.26;33.69;102161.00;6134300;23;19921;-76
2021/03/05 08:39:26;;;;;;;;;;;;;;;11.69;32.68;102160.63;6159909;23;19920;-76
2021/03/05 08:42:12;;;;;;;;;;;;;;;12.06;32.45;102162.91;6152857;23;19988;-77
2021/03/05 08:44:59;;;;;;;;;;;;;;;12.43;32.11;102151.84;6158265;23;19920;-76
2021/03/05 08:47:28;;;;;;;;;;;;;;;12.95;31.37;102162.69;6158620;23;19920;-77
2021/03/05 08:49:56;;;;;;;;;;;;;;;13.47;30.94;102163.66;6160719;23;19924;-77
2021/03/05 08:52:26;;;;;;;;;;;;;;;13.98;30.33;102154.75;6160673;23;19920;-77
2021/03/05 08:54:53;;;;;;;;;;;;;;;14.47;29.67;102152.88;6156387;23;20591;-78
2021/03/05 08:57:20;;;;;;;;;;;;;;;14.99;28.86;102158.88;6132735;23;19920;-77
2021/03/05 08:59:50;;;;;;;;;;;;;;;15.42;28.62;102163.16;6133040;23;19927;-76
2021/03/05 09:02:30;;;;;;;;;;;;;;;15.99;27.88;102159.94;6160507;23;19929;-75
2021/03/05 09:04:58;;;;;;;;;;;;;;;16.43;27.33;102161.34;6133140;23;19955;-75
2021/03/05 09:07:28;;;;;;;;;;;;;;;16.90;26.93;102168.88;6158683;23;19925;-76
2021/03/05 09:09:55;;;;;;;;;;;;;;;17.42;26.44;102168.09;6156168;23;19935;-77
2021/03/05 09:12:22;;;;;;;;;;;;;;;17.82;25.91;102169.41;6157838;23;20370;-76
2021/03/05 09:14:57;;;;;;;;;;;;;;;18.36;25.31;102170.13;6161217;23;19924;-76
2021/03/05 09:17:24;;;;;;;;;;;;;;;19.02;24.81;102166.72;6132455;23;19955;-76
2021/03/05 09:19:52;;;;;;;;;;;;;;;19.76;23.88;102167.25;6158176;23;19921;-75
2021/03/05 09:22:20;;;;;;;;;;;;;;;21.83;21.19;102131.34;6157263;23;19920;-75
2021/03/05 09:24:57;;;;;;;;;;;;;;;25.81;16.69;102104.34;6130085;23;19928;-77
2021/03/05 09:27:25;;;;;;;;;;;;;;;27.06;15.50;102095.25;6161425;23;19920;-75
2021/03/05 09:29:52;;;;;;;;;;;;;;;27.69;15.00;102097.66;6131297;23;19921;-75
2021/03/05 09:32:20;;;;;;;;;;;;;;;28.41;14.29;102085.56;6136228;23;19925;-76
2021/03/05 09:34:47;;;;;;;;;;;;;;;28.72;14.21;102093.94;6161081;23;19921;-76
2021/03/05 09:37:16;;;;;;;;;;;;;;;29.20;13.84;102105.34;6156553;23;19925;-76
2021/03/05 09:39:43;;;;;;;;;;;;;;;29.62;13.67;102108.09;6158295;23;19940;-76
2021/03/05 09:42:11;;;;;;;;;;;;;;;30.10;13.16;102117.53;6159155;23;19924;-75
2021/03/05 09:44:41;;;;;;;;;;;;;;;30.52;12.80;102116.56;6161622;23;19925;-76
2021/03/05 09:47:08;;;;;;;;;;;;;;;30.93;12.61;102120.91;6160866;23;19931;-76
2021/03/05 09:49:38;;;;;;;;;;;;;;;31.11;12.50;102129.31;6132525;23;19940;-76
2021/03/05 09:52:27;;;;;;;;;;;;;;;31.60;12.17;102140.16;6156505;23;19931;-76
2021/03/05 09:54:55;;;;;;;;;;;;;;;31.69;12.19;102143.06;6161115;23;19925;-76
2021/03/05 09:57:23;;;;;;;;;;;;;;;31.92;12.15;102149.88;6162620;23;19920;-76
2021/03/05 09:59:52;;;;;;;;;;;;;;;32.09;11.95;102153.72;6132550;23;19935;-76
2021/03/05 10:02:19;;;;;;;;;;;;;;;32.41;11.80;102155.19;6161373;23;19931;-76
2021/03/05 10:04:47;;;;;;;;;;;;;;;32.18;12.18;102160.19;6156157;23;20570;-77
2021/03/05 10:07:14;;;;;;;;;;;;;;;32.66;11.91;102171.03;6128959;23;19924;-79
2021/03/05 10:09:42;;;;;;;;;;;;;;;32.57;12.00;102164.59;6134695;23;19925;-77
2021/03/05 10:12:09;;;;;;;;;;;;;;;33.05;11.70;102168.91;6160632;23;19924;-77
2021/03/05 10:14:36;;;;;;;;;;;;;;;32.18;12.51;102173.03;6159797;23;19928;-77
2021/03/05 10:17:07;;;;;;;;;;;;;;;31.38;13.27;102181.50;6159148;23;19920;-77
2021/03/05 10:19:36;;;;;;;;;;;;;;;29.73;14.96;102178.03;6153804;23;19924;-78
2021/03/05 10:22:03;;;;;;;;;;;;;;;28.93;15.90;102177.50;6155599;23;20306;-76
2021/03/05 10:24:31;;;;;;;;;;;;;;;29.04;15.64;102176.63;6160160;23;19944;-76
2021/03/05 10:27:14;;;;;;;;;;;;;;;29.68;15.02;102183.03;6158116;23;19936;-77
2021/03/05 10:29:41;;;;;;;;;;;;;;;28.21;16.74;102196.00;6129817;23;19948;-76
2021/03/05 10:32:23;;;;;;;;;;;;;;;26.96;18.11;102200.09;6155765;23;20133;-77
2021/03/05 10:34:52;;;;;;;;;;;;;;;25.90;19.48;102212.13;6149885;23;19940;-77
2021/03/05 10:37:19;;;;;;;;;;;;;;;24.73;20.96;102209.06;6156581;23;20352;-76
2021/03/05 10:39:46;;;;;;;;;;;;;;;24.51;21.60;102210.44;6159019;23;19931;-76
2021/03/05 10:42:15;;;;;;;;;;;;;;;24.84;21.08;102210.09;6134093;23;19952;-76
2021/03/05 10:44:43;;;;;;;;;;;;;;;25.62;20.25;102211.31;6131290;23;19920;-76
2021/03/05 10:47:10;;;;;;;;;;;;;;;26.44;19.22;102208.34;6155346;23;19921;-77
2021/03/05 10:49:38;;;;;;;;;;;;;;;24.84;21.16;102212.81;6155156;23;19940;-75
2021/03/05 10:52:05;;;;;;;;;;;;;;;25.71;20.20;102220.66;6131114;23;20003;-76
2021/03/05 10:54:32;;;;;;;;;;;;;;;25.20;20.66;102218.63;6162451;23;19925;-78
2021/03/05 10:57:02;;;;;;;;;;;;;;;25.38;20.74;102218.41;6159302;23;19924;-76
2021/03/05 10:59:30;;;;;;;;;;;;;;;25.14;20.82;102228.03;6159672;23;19983;-76
2021/03/05 11:01:57;;;;;;;;;;;;;;;25.72;20.09;102216.97;6153429;23;20293;-76
2021/03/05 11:04:25;;;;;;;;;;;;;;;25.49;20.38;102232.97;6130166;23;19928;-76
2021/03/05 11:07:16;;;;;;;;;;;;;;;24.62;21.43;102224.13;6157796;23;19931;-76
2021/03/05 11:19:46;;;;;;;;;;;;;;;27.13;18.53;102223.28;5003624;28;20523;-81
2021/03/05 11:22:13;;;;;;;;;;;;;;;28.37;17.06;102231.00;5004556;28;23630;-81
2021/03/05 11:24:47;;;;;;;;;;;;;;;29.75;15.95;102222.41;5185823;23;20026;-80
2021/03/05 11:31:12;;;;;;;;;;;;;;;27.56;17.94;102217.34;4984872;28;19970;-80
2021/03/05 11:40:24;;;;;;;;;;;;;;;;;;;;;
2021/03/05 11:42:58;;;;;;;;;;;;;;;27.03;18.29;102219.50;4901957;29;19939;-80
2021/03/05 11:45:34;;;;;;;;;;;;;;;26.93;18.52;102217.47;4903174;29;20015;-80
2021/03/05 11:48:22;;;;;;;;;;;;;;;;;;;;;
2021/03/05 11:51:08;;;;;;;;;;;;;;;26.43;18.81;102212.03;4867456;29;19974;-79
2021/03/05 11:54:00;;;;;;;;;;;;;;;26.82;18.59;102212.84;4910097;29;20003;-79
2021/03/05 11:56:37;;;;;;;;;;;;;;;26.56;19.16;102217.44;4907412;29;19938;-80
2021/03/05 11:59:05;;;;;;;;;;;;;;;26.09;19.60;102219.84;4906726;29;19956;-79
2021/03/05 12:01:33;;;;;;;;;;;;;;;25.55;20.31;102217.25;4906386;29;20629;-81
2021/03/05 12:04:01;;;;;;;;;;;;;;;26.54;19.32;102227.53;4904445;29;19972;-80
2021/03/05 12:06:29;;;;;;;;;;;;;;;26.94;19.09;102216.50;4907848;29;20012;-80
2021/03/05 12:09:14;;;;;;;;;;;;;;;27.28;18.52;102216.69;4890459;29;19963;-81
2021/03/05 12:11:43;;;;;;;;;;;;;;;26.39;19.93;102215.09;4899373;29;20003;-81
2021/03/05 12:14:10;;;;;;;;;;;;;;;26.42;20.02;102204.00;4889202;29;19931;-79
2021/03/05 12:16:51;;;;;;;;;;;;;;;26.98;19.54;102209.00;4907580;29;20118;-80
2021/03/05 12:19:18;;;;;;;;;;;;;;;30.05;16.06;102205.25;4906366;29;20431;-79
2021/03/05 12:22:10;;;;;;;;;;;;;;;32.82;13.64;102198.66;4907735;29;19927;-80
2021/03/05 12:27:41;;;;;;;;;;;;;;;35.91;11.34;102203.47;6002873;23;19922;31
2021/03/05 12:30:58;;;;;;;;;;;;;;;36.99;10.45;102206.66;4888093;29;19932;-82
2021/03/05 12:53:34;;;;;;;;;;;;;;;41.67;7.96;102219.66;4833135;29;19971;-82
2021/03/05 12:59:15;;;;;;;;;;;;;;;42.82;7.61;102221.91;4817278;29;19929;-79
2021/03/05 13:05:44;;;;;;;;;;;;;;;43.21;7.34;102225.53;4870990;29;20474;-81
2021/03/05 13:08:52;;;;;;;;;;;;;;;43.19;7.58;102240.75;4889980;29;19932;-81
2021/03/05 13:11:41;;;;;;;;;;;;;;;42.87;7.71;102226.78;4893121;29;19966;-80
2021/03/05 13:21:21;;;;;;;;;;;;;;;41.76;8.93;102240.59;4855771;29;20752;-78
2021/03/05 13:23:47;;;;;;;;;;;;;;;42.02;8.73;102230.53;4857273;29;19932;-78
2021/03/05 13:26:15;;;;;;;;;;;;;;;41.74;9.13;102239.94;4884738;29;19931;-78
2021/03/05 13:28:44;;;;;;;;;;;;;;;41.78;9.04;102241.25;4875791;29;19936;-78
2021/03/05 13:31:11;;;;;;;;;;;;;;;41.15;9.63;102236.94;4882495;29;19936;-79
2021/03/05 13:33:39;;;;;;;;;;;;;;;41.16;9.49;102241.38;4891712;29;19935;-78
2021/03/05 13:36:06;;;;;;;;;;;;;;;40.61;10.03;102242.31;4876869;29;19950;-78
2021/03/05 13:38:39;;;;;;;;;;;;;;;40.09;10.60;102240.94;4877466;29;20393;-78
2021/03/05 13:41:06;;;;;;;;;;;;;;;39.11;11.37;102244.28;4878418;29;19931;-79
2021/03/05 13:43:58;;;;;;;;;;;;;;;38.45;12.00;102247.97;4882221;29;19931;-79
2021/03/05 13:46:26;;;;;;;;;;;;;;;38.14;12.45;102246.22;4886130;29;20392;-79
2021/03/05 13:48:55;;;;;;;;;;;;;;;37.98;12.34;102245.38;4878328;29;19986;-79
2021/03/05 13:51:22;;;;;;;;;;;;;;;38.26;12.17;102255.78;4880280;29;20197;-79
2021/03/05 13:53:49;;;;;;;;;;;;;;;38.45;12.00;102256.25;4879402;29;20333;-79
2021/03/05 13:56:16;;;;;;;;;;;;;;;38.85;12.00;102263.16;4884794;29;19935;-79
2021/03/05 13:58:42;;;;;;;;;;;;;;;39.18;11.81;102256.34;4882490;29;19927;-80
2021/03/05 14:01:09;;;;;;;;;;;;;;;38.51;12.10;102261.00;4879341;29;20030;-79
2021/03/05 14:03:40;;;;;;;;;;;;;;;38.85;12.12;102260.41;4877409;29;19967;-78
2021/03/05 14:06:07;;;;;;;;;;;;;;;38.32;12.45;102263.31;4879695;29;19928;-79
2021/03/05 14:08:40;;;;;;;;;;;;;;;37.33;13.17;102268.84;4881203;29;19938;-79
2021/03/05 14:11:06;;;;;;;;;;;;;;;36.61;13.80;102267.16;4879637;29;19939;-79
2021/03/05 14:13:39;;;;;;;;;;;;;;;36.12;14.42;102260.72;4887603;29;20030;-79
2021/03/05 14:16:15;;;;;;;;;;;;;;;35.84;14.64;102265.72;4869154;29;20338;-78
2021/03/05 14:18:43;;;;;;;;;;;;;;;35.58;15.25;102264.03;4877856;29;20108;-78
2021/03/05 14:21:10;;;;;;;;;;;;;;;35.33;15.56;102268.59;4884782;29;19931;-78
2021/03/05 14:23:40;;;;;;;;;;;;;;;35.24;15.49;102276.84;4874360;29;19931;-78
2021/03/05 14:26:07;;;;;;;;;;;;;;;35.26;15.21;102279.41;4881027;29;19932;-79
2021/03/05 14:28:40;;;;;;;;;;;;;;;35.22;15.02;102289.03;4877673;29;19927;-77
2021/03/05 14:31:09;;;;;;;;;;;;;;;35.36;15.52;102288.41;4874998;29;19928;-78